Time;durP1;ratioP1;P1;durP2;ratioP2;P2;SDS_P1;SDS_P2;PMS_P1;PMS_P2;Temp;Humidity;BMP_temperature;BMP_pressure;BME280_temperature;BME280_humidity;BME280_pressure;Samples;Min_cycle;Max_cycle;Signal;HPM_P1;HPM_P2
2022/04/11 00:01:45;;;;;;;5.80;3.10;;;3.50;99.90;;;;;;5033548;28;20229;-61
2022/04/11 00:04:12;;;;;;;8.23;5.80;;;3.50;99.90;;;;;;5033257;28;20226;-60
2022/04/11 00:06:39;;;;;;;10.27;6.43;;;3.50;99.90;;;;;;5033418;28;20210;-60
2022/04/11 00:09:06;;;;;;;7.07;4.97;;;3.50;99.90;;;;;;5033269;28;20214;-61
2022/04/11 00:11:34;;;;;;;6.03;4.57;;;3.40;99.90;;;;;;5033528;28;20226;-61
2022/04/11 00:14:01;;;;;;;8.67;5.53;;;3.50;99.90;;;;;;5033445;28;20198;-60
2022/04/11 00:16:28;;;;;;;5.63;3.67;;;3.40;99.90;;;;;;5033281;28;20211;-61
2022/04/11 00:18:55;;;;;;;5.17;4.60;;;3.50;99.90;;;;;;5033384;28;20215;-61
2022/04/11 00:21:22;;;;;;;6.87;5.17;;;3.40;99.90;;;;;;5032976;28;20284;-61
2022/04/11 00:23:48;;;;;;;8.57;4.20;;;3.40;99.90;;;;;;5032967;28;20280;-61
2022/04/11 00:26:15;;;;;;;5.90;3.97;;;3.40;99.90;;;;;;5033116;28;20214;-60
2022/04/11 00:28:43;;;;;;;5.60;4.17;;;3.40;99.90;;;;;;5032880;28;20205;-61
2022/04/11 00:31:10;;;;;;;5.03;3.73;;;3.40;99.90;;;;;;5032979;28;20231;-60
2022/04/11 00:33:37;;;;;;;7.73;5.20;;;3.40;99.90;;;;;;5032886;28;20209;-60
2022/04/11 00:36:04;;;;;;;9.20;5.17;;;3.40;99.90;;;;;;5032441;28;20670;-60
2022/04/11 00:38:30;;;;;;;8.10;4.90;;;3.40;99.90;;;;;;5032977;28;20206;-60
2022/04/11 00:40:57;;;;;;;10.63;5.40;;;3.20;99.90;;;;;;5032504;28;20241;-60
2022/04/11 00:43:31;;;;;;;7.60;5.33;;;3.20;99.90;;;;;;5032609;28;20276;-60
2022/04/11 00:45:59;;;;;;;6.47;5.03;;;3.20;99.90;;;;;;5032358;28;20318;-60
2022/04/11 00:48:26;;;;;;;14.20;9.13;;;3.30;99.90;;;;;;5032567;28;20218;-60
2022/04/11 00:50:55;;;;;;;6.60;4.73;;;3.30;99.90;;;;;;5032481;28;20645;-60
2022/04/11 00:53:23;;;;;;;8.13;5.27;;;3.40;99.90;;;;;;5032863;28;20203;-60
2022/04/11 00:55:51;;;;;;;5.60;3.77;;;3.40;99.90;;;;;;5032413;28;20202;-60
2022/04/11 00:58:18;;;;;;;5.63;3.40;;;3.40;99.90;;;;;;5032615;28;20280;-60
2022/04/11 01:00:45;;;;;;;9.00;4.23;;;3.30;99.90;;;;;;5032629;28;20272;-61
2022/04/11 01:03:13;;;;;;;7.73;3.53;;;3.30;99.90;;;;;;5031640;28;20313;-59
2022/04/11 01:05:42;;;;;;;6.10;3.57;;;3.30;99.90;;;;;;5032450;28;20283;-59
2022/04/11 01:08:10;;;;;;;6.93;3.60;;;3.20;99.90;;;;;;5032714;28;20607;-59
2022/04/11 01:10:37;;;;;;;5.33;3.30;;;3.10;99.90;;;;;;5032634;28;20886;-59
2022/04/11 01:13:04;;;;;;;5.50;3.67;;;3.00;99.90;;;;;;5032534;28;20209;-60
2022/04/11 01:15:31;;;;;;;8.03;3.60;;;2.90;99.90;;;;;;5032456;28;20578;-60
2022/04/11 01:17:57;;;;;;;7.13;4.80;;;2.90;99.90;;;;;;5032191;28;20218;-60
2022/04/11 01:20:25;;;;;;;9.97;7.23;;;3.00;99.90;;;;;;5032077;28;20733;-60
2022/04/11 01:22:53;;;;;;;5.67;3.83;;;3.10;99.90;;;;;;5032397;28;20225;-60
2022/04/11 01:25:20;;;;;;;6.83;3.77;;;3.10;99.90;;;;;;5032076;28;20206;-60
2022/04/11 01:27:47;;;;;;;7.80;4.80;;;3.10;99.90;;;;;;5032550;28;20325;-61
2022/04/11 01:30:16;;;;;;;6.80;4.17;;;3.10;99.90;;;;;;5031948;28;20206;-60
2022/04/11 01:32:43;;;;;;;12.20;7.07;;;3.00;99.90;;;;;;5032279;28;20242;-60
2022/04/11 01:35:19;;;;;;;10.00;6.13;;;3.00;99.90;;;;;;5031916;28;20213;-61
2022/04/11 01:37:45;;;;;;;10.27;6.63;;;3.10;99.90;;;;;;5032125;28;20276;-59
2022/04/11 01:40:13;;;;;;;7.00;5.40;;;3.10;99.90;;;;;;5031846;28;20282;-60
2022/04/11 01:42:42;;;;;;;6.50;4.43;;;3.10;99.90;;;;;;5033070;28;20252;-61
2022/04/11 01:45:10;;;;;;;8.37;5.93;;;3.10;99.90;;;;;;5032145;28;20309;-60
2022/04/11 01:47:38;;;;;;;5.00;4.23;;;3.10;99.90;;;;;;5032013;28;20210;-61
2022/04/11 01:50:05;;;;;;;7.07;3.40;;;3.20;99.90;;;;;;5031869;28;20633;-60
2022/04/11 01:52:32;;;;;;;5.10;3.43;;;3.10;99.90;;;;;;5031820;28;20206;-62
2022/04/11 01:54:59;;;;;;;4.03;3.00;;;3.20;99.90;;;;;;5031557;28;20202;-60
2022/04/11 01:57:27;;;;;;;5.13;3.20;;;3.10;99.90;;;;;;5031472;28;20220;-60
2022/04/11 01:59:53;;;;;;;5.60;3.10;;;3.10;99.90;;;;;;5032051;28;20241;-61
2022/04/11 02:02:20;;;;;;;4.77;2.90;;;3.00;99.90;;;;;;5031764;28;20222;-62
2022/04/11 02:04:46;;;;;;;3.63;2.97;;;2.90;99.90;;;;;;5031476;28;20234;-61
2022/04/11 02:07:13;;;;;;;3.60;3.00;;;3.10;99.90;;;;;;5031725;28;20229;-61
2022/04/11 02:09:40;;;;;;;4.67;3.57;;;3.10;99.90;;;;;;5031674;28;20202;-60
2022/04/11 02:12:07;;;;;;;3.90;3.00;;;3.30;99.90;;;;;;5031787;28;20226;-61
2022/04/11 02:14:35;;;;;;;5.73;3.30;;;3.30;99.90;;;;;;5032207;28;20343;-60
2022/04/11 02:17:02;;;;;;;5.13;3.13;;;3.40;99.90;;;;;;5035712;28;20260;-60
2022/04/11 02:19:29;;;;;;;3.20;2.67;;;3.40;99.90;;;;;;5035710;28;20674;-60
2022/04/11 02:21:55;;;;;;;5.50;3.10;;;3.40;99.90;;;;;;5035527;28;20380;-60
2022/04/11 02:24:22;;;;;;;5.00;3.03;;;3.40;99.90;;;;;;5035099;28;20574;-60
2022/04/11 02:26:49;;;;;;;4.37;3.10;;;3.50;99.90;;;;;;5035600;28;20207;-60
2022/04/11 02:29:16;;;;;;;5.87;3.20;;;3.50;99.90;;;;;;5035488;28;20214;-61
2022/04/11 02:31:44;;;;;;;5.70;3.23;;;3.60;99.90;;;;;;5035553;28;20317;-60
2022/04/11 02:34:10;;;;;;;5.37;3.50;;;3.60;99.90;;;;;;5035446;28;20198;-60
2022/04/11 02:36:37;;;;;;;5.63;3.47;;;3.60;99.90;;;;;;5035406;28;20276;-59
2022/04/11 02:39:04;;;;;;;4.20;3.40;;;3.50;99.90;;;;;;5035190;28;20206;-60
2022/04/11 02:41:30;;;;;;;4.13;2.77;;;3.40;99.90;;;;;;5035173;28;20242;-59
2022/04/11 02:43:57;;;;;;;6.70;3.10;;;3.40;99.90;;;;;;5035218;28;20272;-61
2022/04/11 02:46:24;;;;;;;5.67;2.93;;;3.30;99.90;;;;;;5035022;28;20214;-61
2022/04/11 02:48:52;;;;;;;4.77;3.00;;;3.20;99.90;;;;;;5035081;28;20210;-61
2022/04/11 02:51:18;;;;;;;5.90;3.03;;;3.10;99.90;;;;;;5034856;28;20283;-61
2022/04/11 02:53:45;;;;;;;3.67;2.90;;;3.10;99.90;;;;;;5035049;28;20284;-60
2022/04/11 02:56:12;;;;;;;5.63;3.10;;;3.10;99.90;;;;;;5034738;28;20206;-61
2022/04/11 02:58:38;;;;;;;4.53;3.07;;;3.20;99.90;;;;;;5034972;28;20206;-60
2022/04/11 03:01:05;;;;;;;4.13;3.23;;;3.10;99.90;;;;;;5034866;28;20233;-61
2022/04/11 03:03:31;;;;;;;3.13;2.83;;;3.10;99.90;;;;;;5034741;28;20242;-62
2022/04/11 03:06:00;;;;;;;6.53;3.27;;;3.10;99.90;;;;;;5034376;28;20301;-62
2022/04/11 03:08:27;;;;;;;4.67;3.30;;;3.10;99.90;;;;;;5034772;28;20242;-61
2022/04/11 03:10:54;;;;;;;5.37;3.30;;;3.00;99.90;;;;;;5034700;28;20234;-61
2022/04/11 03:13:21;;;;;;;6.07;2.83;;;3.10;99.90;;;;;;5034652;28;20631;-61
2022/04/11 03:15:48;;;;;;;4.37;2.80;;;3.10;99.90;;;;;;5034170;28;20210;-62
2022/04/11 03:18:14;;;;;;;3.50;2.90;;;3.20;99.90;;;;;;5034553;28;20217;-62
2022/04/11 03:20:41;;;;;;;3.13;2.83;;;3.30;99.90;;;;;;5034936;28;20228;-61
2022/04/11 03:23:09;;;;;;;6.30;3.50;;;3.40;99.90;;;;;;5034492;28;20546;-61
2022/04/11 03:25:36;;;;;;;5.63;3.90;;;3.50;99.90;;;;;;5034250;28;20210;-60
2022/04/11 03:28:03;;;;;;;5.47;3.40;;;3.60;99.90;;;;;;5033618;28;20241;-60
2022/04/11 03:30:30;;;;;;;5.50;3.27;;;3.70;99.90;;;;;;5034348;28;20250;-61
2022/04/11 03:32:57;;;;;;;7.70;3.63;;;3.70;99.90;;;;;;5035274;28;20210;-60
2022/04/11 03:35:24;;;;;;;5.50;3.67;;;3.80;99.90;;;;;;5034044;28;20681;-60
2022/04/11 03:37:50;;;;;;;4.60;3.70;;;3.90;99.90;;;;;;5034251;28;20293;-60
2022/04/11 03:40:18;;;;;;;3.90;2.87;;;3.90;99.90;;;;;;5034229;28;20206;-60
2022/04/11 03:42:45;;;;;;;6.33;3.70;;;4.00;99.90;;;;;;5034311;28;20264;-60
2022/04/11 03:45:12;;;;;;;4.57;3.30;;;4.00;99.90;;;;;;5034346;28;20226;-60
2022/04/11 03:47:39;;;;;;;5.83;3.50;;;4.10;99.90;;;;;;5034547;28;20202;-60
2022/04/11 03:50:06;;;;;;;5.43;4.00;;;4.10;99.90;;;;;;5033967;28;20217;-60
2022/04/11 03:52:33;;;;;;;6.20;3.70;;;4.10;99.90;;;;;;5033726;28;20630;-61
2022/04/11 03:55:00;;;;;;;4.83;3.20;;;4.10;99.90;;;;;;5033515;28;20207;-61
2022/04/11 03:57:28;;;;;;;5.23;3.63;;;4.10;99.90;;;;;;5033757;28;20305;-60
2022/04/11 03:59:54;;;;;;;5.37;3.77;;;4.20;99.90;;;;;;5033701;28;20205;-60
2022/04/11 04:02:21;;;;;;;5.10;3.47;;;4.20;99.90;;;;;;5033424;28;20227;-61
2022/04/11 04:04:48;;;;;;;4.87;3.33;;;4.40;99.90;;;;;;5033289;28;20789;-60
2022/04/11 04:07:14;;;;;;;7.40;3.90;;;4.40;99.90;;;;;;5033418;28;20209;-61
2022/04/11 04:09:41;;;;;;;4.53;3.47;;;4.50;99.90;;;;;;5033410;28;20206;-60
2022/04/11 04:12:09;;;;;;;3.93;3.20;;;4.50;99.90;;;;;;5033429;28;20288;-62
2022/04/11 04:14:38;;;;;;;5.33;3.40;;;4.60;99.90;;;;;;5033760;28;20198;-59
2022/04/11 04:17:05;;;;;;;5.20;3.70;;;4.60;99.90;;;;;;5032958;28;20210;-60
2022/04/11 04:19:31;;;;;;;6.83;3.83;;;4.60;99.90;;;;;;5033414;28;20202;-59
2022/04/11 04:21:58;;;;;;;6.40;3.70;;;4.70;99.90;;;;;;5033308;28;20222;-59
2022/04/11 04:24:25;;;;;;;6.63;4.00;;;4.60;99.90;;;;;;5033005;28;20230;-60
2022/04/11 04:26:52;;;;;;;5.17;3.80;;;4.60;99.90;;;;;;5033192;28;20210;-60
2022/04/11 04:29:18;;;;;;;4.40;3.60;;;4.60;99.90;;;;;;5033369;28;20210;-61
2022/04/11 04:31:47;;;;;;;4.30;3.67;;;4.50;99.90;;;;;;5032962;28;20226;-60
2022/04/11 04:34:14;;;;;;;3.60;3.30;;;4.40;99.90;;;;;;5033162;28;20201;-60
2022/04/11 04:36:41;;;;;;;7.03;3.87;;;4.30;99.90;;;;;;5033098;28;20214;-60
2022/04/11 04:39:08;;;;;;;4.70;3.60;;;4.30;99.90;;;;;;5033000;28;20333;-60
2022/04/11 04:41:34;;;;;;;5.47;3.77;;;4.30;99.90;;;;;;5032743;28;20241;-60
2022/04/11 04:44:01;;;;;;;4.13;3.40;;;4.30;99.90;;;;;;5032654;28;20233;-60
2022/04/11 04:46:28;;;;;;;8.17;3.93;;;4.20;99.90;;;;;;5032699;28;20429;-59
2022/04/11 04:48:57;;;;;;;6.27;4.40;;;4.10;99.90;;;;;;5032867;28;20207;-61
2022/04/11 04:51:24;;;;;;;4.97;4.13;;;4.10;99.90;;;;;;5032832;28;20234;-60
2022/04/11 04:53:50;;;;;;;6.40;3.50;;;4.10;99.90;;;;;;5032667;28;20221;-61
2022/04/11 04:56:17;;;;;;;5.10;3.57;;;4.10;99.90;;;;;;5032417;28;20201;-60
2022/04/11 04:58:45;;;;;;;8.53;4.20;;;4.10;99.90;;;;;;5032765;28;20666;-59
2022/04/11 05:01:12;;;;;;;5.17;3.97;;;4.20;99.90;;;;;;5032551;28;20233;-61
2022/04/11 05:03:39;;;;;;;4.30;3.70;;;4.30;99.90;;;;;;5032624;28;20252;-61
2022/04/11 05:06:07;;;;;;;4.97;4.13;;;4.40;99.90;;;;;;5032259;28;20252;-60
2022/04/11 05:08:33;;;;;;;6.37;4.13;;;4.50;99.90;;;;;;5032297;28;20280;-59
2022/04/11 05:11:00;;;;;;;7.67;3.93;;;4.60;99.90;;;;;;5032521;28;20222;-60
2022/04/11 05:13:27;;;;;;;5.67;4.13;;;4.70;99.90;;;;;;5032567;28;20202;-61
2022/04/11 05:15:54;;;;;;;4.67;3.77;;;4.70;99.90;;;;;;5032150;28;20198;-59
2022/04/11 05:18:20;;;;;;;6.63;4.33;;;4.80;99.90;;;;;;5032363;28;20256;-59
2022/04/11 05:20:47;;;;;;;6.70;4.03;;;4.80;99.90;;;;;;5032336;28;20635;-60
2022/04/11 05:23:15;;;;;;;7.20;3.73;;;4.90;99.90;;;;;;5032382;28;20213;-61
2022/04/11 05:25:42;;;;;;;6.00;3.80;;;5.00;99.90;;;;;;5031947;28;20271;-60
2022/04/11 05:28:09;;;;;;;5.03;4.00;;;4.90;99.90;;;;;;5032232;28;20214;-60
2022/04/11 05:30:35;;;;;;;5.13;3.67;;;4.90;99.90;;;;;;5032208;28;20291;-61
2022/04/11 05:33:02;;;;;;;9.40;3.83;;;4.80;99.90;;;;;;5032292;28;20285;-60
2022/04/11 05:35:29;;;;;;;6.03;3.83;;;4.90;99.90;;;;;;5031750;28;20670;-61
2022/04/11 05:37:56;;;;;;;4.63;3.83;;;5.00;99.90;;;;;;5031797;28;20638;-60
2022/04/11 05:40:24;;;;;;;7.10;4.23;;;5.00;99.90;;;;;;5031580;28;20269;-59
2022/04/11 05:42:50;;;;;;;6.57;3.90;;;5.20;99.90;;;;;;5032188;28;20206;-61
2022/04/11 05:45:17;;;;;;;6.47;4.30;;;5.90;99.90;;;;;;5031756;28;20226;-59
2022/04/11 05:47:44;;;;;;;8.17;4.77;;;7.10;99.90;;;;;;5032056;28;20221;-61
2022/04/11 05:50:10;;;;;;;10.60;7.83;;;8.00;99.90;;;;;;5031019;28;20576;-60
2022/04/11 05:52:38;;;;;;;8.27;4.00;;;9.10;99.90;;;;;;5031637;28;20214;-60
2022/04/11 05:55:05;;;;;;;7.07;4.60;;;10.40;99.90;;;;;;5031823;28;20297;-60
2022/04/11 05:57:33;;;;;;;12.37;7.17;;;11.80;99.90;;;;;;5031712;28;20225;-59
2022/04/11 06:00:00;;;;;;;7.17;4.10;;;13.10;99.70;;;;;;5031764;28;20283;-60
2022/04/11 06:02:27;;;;;;;5.17;3.67;;;14.00;96.40;;;;;;5031815;28;20242;-60
2022/04/11 06:04:54;;;;;;;7.57;3.73;;;14.70;93.90;;;;;;5031524;28;20273;-62
2022/04/11 06:07:23;;;;;;;11.20;5.30;;;15.20;92.80;;;;;;5031570;28;20673;-61
2022/04/11 06:09:49;;;;;;;9.43;4.80;;;15.60;91.50;;;;;;5031964;28;20272;-60
2022/04/11 06:12:17;;;;;;;7.00;4.13;;;16.30;90.50;;;;;;5031364;28;20655;-61
2022/04/11 06:14:45;;;;;;;5.97;3.63;;;17.10;85.70;;;;;;5031740;28;20229;-59
2022/04/11 06:17:12;;;;;;;5.90;3.37;;;17.60;83.50;;;;;;5031699;28;20256;-60
2022/04/11 06:19:39;;;;;;;6.10;3.50;;;17.70;80.30;;;;;;5031470;28;20237;-60
2022/04/11 06:22:05;;;;;;;4.90;3.13;;;17.80;79.60;;;;;;5031454;28;20230;-60
2022/04/11 06:24:32;;;;;;;5.47;3.20;;;18.00;78.20;;;;;;5031627;28;20318;-60
2022/04/11 06:26:59;;;;;;;4.67;3.93;;;18.10;76.50;;;;;;5031763;28;20202;-60
2022/04/11 06:29:25;;;;;;;4.83;3.23;;;18.40;76.00;;;;;;5031566;28;20302;-59
2022/04/11 06:31:53;;;;;;;5.63;3.30;;;19.10;74.30;;;;;;5031354;28;20238;-59
2022/04/11 06:34:20;;;;;;;6.03;3.50;;;19.90;71.30;;;;;;5031366;28;20213;-59
2022/04/11 06:36:46;;;;;;;4.15;3.50;;;20.60;68.00;;;;;;5031362;28;20586;-58
2022/04/11 06:39:13;;;;;;;5.55;2.72;;;20.60;67.70;;;;;;5031382;28;20627;-60
2022/04/11 06:41:40;;;;;;;4.25;3.10;;;20.70;65.70;;;;;;5031207;28;20437;-56
2022/04/11 06:44:07;;;;;;;6.45;3.78;;;20.50;65.80;;;;;;5014307;28;20678;-59
2022/04/11 06:46:34;;;;;;;6.93;3.20;;;20.20;65.40;;;;;;5011086;28;20297;-59
2022/04/11 06:49:02;;;;;;;4.68;3.40;;;19.90;65.20;;;;;;5011881;28;20222;-58
2022/04/11 06:51:29;;;;;;;4.90;2.90;;;19.50;66.20;;;;;;5011675;28;20281;-59
2022/04/11 06:53:55;;;;;;;4.70;2.88;;;19.30;66.40;;;;;;5011552;28;20211;-59
2022/04/11 06:56:22;;;;;;;4.32;3.15;;;19.80;65.30;;;;;;5011633;28;20230;-60
2022/04/11 06:58:49;;;;;;;5.20;3.10;;;20.10;64.30;;;;;;5011738;28;20211;-56
2022/04/11 07:01:16;;;;;;;4.22;2.92;;;20.10;63.80;;;;;;5011798;28;20229;-56
2022/04/11 07:03:42;;;;;;;3.22;2.60;;;20.00;63.50;;;;;;5015229;28;20634;-55
2022/04/11 07:06:11;;;;;;;2.90;2.58;;;19.80;63.50;;;;;;5014975;28;20725;-55
2022/04/11 07:08:37;;;;;;;5.82;3.90;;;20.00;62.80;;;;;;5015128;28;20758;-55
2022/04/11 07:11:04;;;;;;;4.70;2.80;;;19.90;62.80;;;;;;5015018;28;20226;-56
2022/04/11 07:13:31;;;;;;;2.90;2.40;;;19.60;63.10;;;;;;5014899;28;20206;-55
2022/04/11 07:15:58;;;;;;;7.50;2.83;;;20.00;62.20;;;;;;5014564;28;20284;-56
2022/04/11 07:18:27;;;;;;;2.97;2.45;;;19.90;61.50;;;;;;5015117;28;20214;-56
2022/04/11 07:20:53;;;;;;;4.65;2.17;;;19.50;61.70;;;;;;5015031;28;20231;-55
2022/04/11 07:23:22;;;;;;;3.47;2.38;;;19.30;61.80;;;;;;5014755;28;20215;-56
2022/04/11 07:25:49;;;;;;;4.35;2.53;;;19.10;62.40;;;;;;5014207;28;20645;-56
2022/04/11 07:28:16;;;;;;;6.43;2.50;;;19.00;61.60;;;;;;5014527;28;20599;-55
2022/04/11 07:30:43;;;;;;;4.80;2.50;;;18.80;62.30;;;;;;5014341;28;20270;-55
2022/04/11 07:33:10;;;;;;;6.13;2.70;;;18.40;62.10;;;;;;5014687;28;20207;-55
2022/04/11 07:35:37;;;;;;;5.85;2.47;;;18.50;62.90;;;;;;5014414;28;20265;-55
2022/04/11 07:38:04;;;;;;;3.13;2.35;;;18.50;62.70;;;;;;5014678;28;20214;-55
2022/04/11 07:43:06;;;;;;;2.80;2.35;;;19.20;61.50;;;;;;5051957;28;20692;-57
2022/04/11 07:45:33;;;;;;;3.88;2.45;;;19.10;61.00;;;;;;5053491;28;20229;-56
2022/04/11 07:47:59;;;;;;;5.00;2.67;;;19.00;61.90;;;;;;5053691;28;20259;-56
2022/04/11 07:50:26;;;;;;;4.43;2.30;;;19.00;61.20;;;;;;5053626;28;20240;-56
2022/04/11 07:52:53;;;;;;;4.85;2.60;;;18.40;61.30;;;;;;5053802;28;20222;-56
2022/04/11 07:55:20;;;;;;;3.92;2.13;;;17.90;64.00;;;;;;5053560;28;20202;-56
2022/04/11 07:57:47;;;;;;;3.92;2.70;;;18.10;63.10;;;;;;5054832;28;20236;-56
2022/04/11 08:00:16;;;;;;;5.32;2.58;;;18.60;62.10;;;;;;5055143;28;20205;-58
2022/04/11 08:02:42;;;;;;;4.22;2.20;;;18.90;61.60;;;;;;5054500;28;20640;-55
2022/04/11 08:05:10;;;;;;;3.97;2.38;;;18.60;61.80;;;;;;5054160;28;20225;-55
2022/04/11 08:07:37;;;;;;;4.00;2.33;;;18.40;62.10;;;;;;5054047;28;20275;-56
2022/04/11 08:10:06;;;;;;;2.75;2.20;;;18.50;61.60;;;;;;5053697;28;20205;-55
2022/04/11 08:12:33;;;;;;;2.83;2.00;;;17.90;61.60;;;;;;5053193;28;20291;-55
2022/04/11 08:15:00;;;;;;;3.37;2.23;;;17.10;63.40;;;;;;5053683;28;20209;-55
2022/04/11 08:17:28;;;;;;;3.17;2.20;;;15.70;66.10;;;;;;5053821;28;20292;-55
2022/04/11 08:19:55;;;;;;;5.67;3.20;;;14.20;70.00;;;;;;5053901;28;20432;-61
2022/04/11 08:22:22;;;;;;;3.50;2.90;;;13.50;73.50;;;;;;5054629;28;20230;-60
2022/04/11 08:24:48;;;;;;;4.77;2.37;;;13.30;75.00;;;;;;5054246;28;20696;-60
2022/04/11 08:27:16;;;;;;;4.57;2.47;;;13.00;74.70;;;;;;5053725;28;20213;-59
2022/04/11 08:29:43;;;;;;;3.87;2.40;;;12.90;75.50;;;;;;5053324;28;20233;-60
2022/04/11 08:32:09;;;;;;;6.03;2.33;;;12.60;75.60;;;;;;5054220;28;20819;-62
2022/04/11 08:34:37;;;;;;;3.10;2.20;;;12.20;76.90;;;;;;5052331;28;20201;-58
2022/04/11 08:37:05;;;;;;;2.67;2.40;;;12.00;77.80;;;;;;5059192;28;20193;-61
2022/04/11 08:39:31;;;;;;;2.83;2.00;;;11.90;77.50;;;;;;5057953;28;20585;-55
2022/04/11 08:42:02;;;;;;;3.70;2.13;;;11.80;78.10;;;;;;5053550;28;20799;-55
2022/04/11 08:44:29;;;;;;;2.70;2.00;;;11.70;78.00;;;;;;5054040;28;20301;-55
2022/04/11 08:47:00;;;;;;;5.10;2.33;;;11.50;79.10;;;;;;5053378;28;20229;-54
2022/04/11 08:49:28;;;;;;;4.23;2.23;;;11.40;80.50;;;;;;5053180;28;20286;-54
2022/04/11 08:51:56;;;;;;;3.03;2.00;;;11.50;80.40;;;;;;5052531;28;20235;-55
2022/04/11 08:54:23;;;;;;;4.00;2.17;;;11.50;79.40;;;;;;5052794;28;20212;-55
2022/04/11 08:56:49;;;;;;;3.33;2.13;;;11.50;79.40;;;;;;5052305;28;20198;-55
2022/04/11 08:59:16;;;;;;;2.67;2.07;;;11.50;79.30;;;;;;5052677;28;20235;-55
2022/04/11 09:01:43;;;;;;;4.80;2.13;;;11.50;79.80;;;;;;5052065;28;20229;-55
2022/04/11 09:04:10;;;;;;;5.93;1.93;;;11.60;79.40;;;;;;5052487;28;20210;-55
2022/04/11 09:06:37;;;;;;;2.67;1.90;;;11.70;79.90;;;;;;5051884;28;20226;-56
2022/04/11 09:09:05;;;;;;;3.00;2.03;;;11.70;79.10;;;;;;5053119;28;20617;-55
2022/04/11 09:11:34;;;;;;;3.17;2.00;;;11.80;79.40;;;;;;5052187;28;20713;-55
2022/04/11 09:14:02;;;;;;;3.63;2.40;;;11.70;79.30;;;;;;5051637;28;20677;-56
2022/04/11 09:16:30;;;;;;;2.80;2.20;;;11.90;79.00;;;;;;5051907;28;20205;-56
2022/04/11 09:18:57;;;;;;;5.23;2.33;;;12.00;78.30;;;;;;5052041;28;20267;-55
2022/04/11 09:21:25;;;;;;;2.70;2.07;;;12.10;78.40;;;;;;5052125;28;20283;-56
2022/04/11 09:24:12;;;;;;;3.30;1.90;;;12.20;76.50;;;;;;5051581;28;20259;-56
2022/04/11 09:26:41;;;;;;;3.23;2.00;;;12.20;76.10;;;;;;5051710;28;20624;-55
2022/04/11 09:29:08;;;;;;;3.17;1.90;;;12.20;77.70;;;;;;5052014;28;20304;-56
2022/04/11 09:31:35;;;;;;;3.33;2.00;;;12.10;77.90;;;;;;5051572;28;20232;-55
2022/04/11 09:34:15;;;;;;;2.73;1.90;;;12.40;77.40;;;;;;5051939;28;20206;-56
2022/04/11 09:36:50;;;;;;;3.37;2.10;;;12.70;76.60;;;;;;5051300;28;20201;-55
2022/04/11 09:39:20;;;;;;;3.00;1.80;;;13.00;76.00;;;;;;5052134;28;20216;-56
2022/04/11 09:41:49;;;;;;;4.77;2.33;;;13.20;74.90;;;;;;5052048;28;20232;-56
2022/04/11 09:44:24;;;;;;;2.47;1.70;;;13.20;76.10;;;;;;5051799;28;20240;-56
2022/04/11 09:46:51;;;;;;;3.27;1.70;;;13.30;72.90;;;;;;5051522;28;20251;-56
2022/04/11 09:49:18;;;;;;;2.67;1.90;;;13.30;72.70;;;;;;5051627;28;20205;-56
2022/04/11 09:52:07;;;;;;;3.53;1.87;;;13.30;74.00;;;;;;5051529;28;20233;-57
2022/04/11 09:54:36;;;;;;;2.93;1.63;;;13.30;73.50;;;;;;5046974;28;20626;-56
2022/04/11 09:57:06;;;;;;;4.23;2.47;;;13.30;73.70;;;;;;5051335;28;20637;-56
2022/04/11 09:59:33;;;;;;;3.60;2.00;;;13.40;73.40;;;;;;5051493;28;20282;-57
2022/04/11 10:02:00;;;;;;;4.27;2.70;;;13.50;72.80;;;;;;5050839;28;20226;-55
2022/04/11 10:04:28;;;;;;;2.40;1.67;;;13.60;73.20;;;;;;5051329;28;20655;-57
2022/04/11 10:06:56;;;;;;;2.47;1.83;;;13.80;72.70;;;;;;5050196;28;20240;-55
2022/04/11 10:09:24;;;;;;;3.80;1.87;;;13.90;72.50;;;;;;5052026;28;20263;-56
2022/04/11 10:11:52;;;;;;;2.57;1.70;;;14.00;72.40;;;;;;5051718;28;20312;-55
2022/04/11 10:14:26;;;;;;;3.73;1.80;;;14.00;71.30;;;;;;5051096;28;20739;-56
2022/04/11 10:16:55;;;;;;;5.67;1.77;;;14.10;71.10;;;;;;5051335;28;20206;-56
2022/04/11 10:19:24;;;;;;;2.53;1.70;;;14.10;71.20;;;;;;5051557;28;20209;-56
2022/04/11 10:21:54;;;;;;;2.70;1.87;;;14.00;71.30;;;;;;5051484;28;20256;-56
2022/04/11 10:24:34;;;;;;;2.27;1.40;;;14.10;70.80;;;;;;5051665;28;20727;-57
2022/04/11 10:27:17;;;;;;;4.00;1.67;;;14.20;70.70;;;;;;5050960;28;20252;-55
2022/04/11 10:29:45;;;;;;;3.47;1.73;;;14.30;69.40;;;;;;5051286;28;20212;-59
2022/04/11 10:32:13;;;;;;;2.93;1.57;;;14.40;69.50;;;;;;5051360;28;20287;-57
2022/04/11 10:34:54;;;;;;;2.17;1.70;;;14.40;69.50;;;;;;5051522;28;20213;-56
2022/04/11 10:37:23;;;;;;;2.73;1.77;;;14.40;69.50;;;;;;5054270;28;20237;-55
2022/04/11 10:39:51;;;;;;;2.57;1.60;;;14.50;70.60;;;;;;5054858;28;20354;-55
2022/04/11 10:42:24;;;;;;;3.00;1.87;;;14.60;68.60;;;;;;5054699;28;20241;-54
2022/04/11 10:44:54;;;;;;;1.67;1.43;;;14.70;69.00;;;;;;5054818;28;20236;-55
2022/04/11 10:47:33;;;;;;;2.00;1.47;;;14.80;68.00;;;;;;5054646;28;20225;-55
2022/04/11 10:50:22;;;;;;;2.17;1.50;;;14.90;68.00;;;;;;5054511;28;20244;-55
2022/04/11 10:52:55;;;;;;;2.53;1.57;;;14.90;68.10;;;;;;5054408;28;20656;-56
2022/04/11 10:55:23;;;;;;;2.03;1.57;;;15.00;67.00;;;;;;5054609;28;20209;-55
2022/04/11 10:57:52;;;;;;;1.77;1.30;;;15.10;67.70;;;;;;5054494;28;20236;-55
2022/04/11 11:00:22;;;;;;;2.57;1.23;;;15.00;67.30;;;;;;5054605;28;20206;-55
2022/04/11 11:03:19;;;;;;;1.97;1.50;;;15.10;65.80;;;;;;5054366;28;20224;-55
2022/04/11 11:05:48;;;;;;;2.20;1.30;;;15.10;64.50;;;;;;5054469;28;20213;-55
2022/04/11 11:08:26;;;;;;;2.60;1.60;;;15.20;64.50;;;;;;5054340;28;20608;-55
2022/04/11 11:10:55;;;;;;;2.87;1.50;;;15.10;65.60;;;;;;5054369;28;20316;-56
2022/04/11 11:13:26;;;;;;;2.40;1.50;;;15.20;66.10;;;;;;5054570;28;20621;-55
2022/04/11 11:15:55;;;;;;;3.77;2.20;;;15.10;67.30;;;;;;5053321;28;20202;-56
2022/04/11 11:18:22;;;;;;;1.93;1.37;;;15.20;66.20;;;;;;5054200;28;20205;-56
2022/04/11 11:20:52;;;;;;;3.83;1.50;;;15.20;62.60;;;;;;5054399;28;20201;-55
2022/04/11 11:23:25;;;;;;;2.07;1.60;;;15.30;64.50;;;;;;5054072;28;20237;-55
2022/04/11 11:25:54;;;;;;;3.80;1.70;;;15.40;65.20;;;;;;5053740;28;20401;-59
2022/04/11 11:28:21;;;;;;;2.40;1.40;;;15.50;66.20;;;;;;5053942;28;20665;-57
2022/04/11 11:30:49;;;;;;;2.63;1.30;;;15.50;65.00;;;;;;5054303;28;20231;-57
2022/04/11 11:33:19;;;;;;;3.90;1.37;;;15.60;65.00;;;;;;5053959;28;20206;-57
2022/04/11 11:35:51;;;;;;;1.63;1.20;;;15.70;63.60;;;;;;5054228;28;20201;-57
2022/04/11 11:38:22;;;;;;;1.77;1.20;;;15.80;65.10;;;;;;5053630;28;20240;-58
2022/04/11 11:40:56;;;;;;;2.20;1.53;;;15.90;63.30;;;;;;5053572;28;20273;-57
2022/04/11 11:43:23;;;;;;;1.60;1.37;;;15.60;61.50;;;;;;5053985;28;20496;-57
2022/04/11 11:45:50;;;;;;;1.67;1.30;;;15.70;63.30;;;;;;5053533;28;20210;-58
2022/04/11 11:48:26;;;;;;;3.43;1.40;;;15.90;62.60;;;;;;5053166;28;20296;-58
2022/04/11 11:50:56;;;;;;;3.23;1.33;;;16.10;64.00;;;;;;5053787;28;20396;-60
2022/04/11 11:53:24;;;;;;;2.47;1.50;;;16.20;64.40;;;;;;5054163;28;20201;-56
2022/04/11 11:55:53;;;;;;;4.00;1.60;;;16.30;62.40;;;;;;5053564;28;20217;-57
2022/04/11 11:58:20;;;;;;;2.50;1.50;;;16.30;62.90;;;;;;5053483;28;20214;-57
2022/04/11 12:00:48;;;;;;;2.33;1.50;;;16.30;62.30;;;;;;5053588;28;20255;-57
2022/04/11 12:06:01;;;;;;;1.40;1.13;;;16.30;62.40;;;;;;5053282;28;20200;-58
2022/04/11 12:08:30;;;;;;;6.37;3.63;;;16.20;62.30;;;;;;5053577;28;20201;-58
2022/04/11 12:10:59;;;;;;;2.67;1.47;;;16.30;63.80;;;;;;5053641;28;20312;-58
2022/04/11 12:13:27;;;;;;;10.83;1.80;;;16.50;63.40;;;;;;5053407;28;20237;-57
2022/04/11 12:16:05;;;;;;;2.20;1.40;;;16.60;63.10;;;;;;5053132;28;20743;-57
2022/04/11 12:18:47;;;;;;;3.00;1.53;;;16.70;63.30;;;;;;5053191;28;20216;-58
2022/04/11 12:21:15;;;;;;;2.20;1.50;;;16.80;63.00;;;;;;5053128;28;20229;-58
2022/04/11 12:23:47;;;;;;;1.60;1.17;;;16.90;61.20;;;;;;5053090;28;20296;-58
2022/04/11 12:26:24;;;;;;;3.63;1.20;;;17.00;62.80;;;;;;5052659;28;20316;-58
2022/04/11 12:28:50;;;;;;;3.43;1.53;;;17.10;63.50;;;;;;5053093;28;20209;-58
2022/04/11 12:31:18;;;;;;;1.90;1.42;;;17.40;63.30;;;;;;5053028;28;20233;-56
2022/04/11 12:33:48;;;;;;;2.95;1.40;;;17.50;62.70;;;;;;5053081;28;20300;-56
2022/04/11 12:36:19;;;;;;;4.80;1.50;;;17.70;59.90;;;;;;5052603;28;20201;-56
2022/04/11 12:38:51;;;;;;;1.73;1.23;;;17.50;61.80;;;;;;5052725;28;20282;-56
2022/04/11 12:41:29;;;;;;;3.30;1.80;;;17.60;61.00;;;;;;5052648;28;20265;-56
2022/04/11 12:44:10;;;;;;;2.55;1.42;;;17.60;59.50;;;;;;5052805;28;20271;-58
2022/04/11 12:46:38;;;;;;;3.33;1.60;;;17.50;59.50;;;;;;5052440;28;20548;-56
2022/04/11 12:49:06;;;;;;;4.43;1.40;;;17.70;60.30;;;;;;5052968;28;20241;-56
2022/04/11 12:51:34;;;;;;;4.97;1.70;;;17.80;60.40;;;;;;5052363;28;20225;-56
2022/04/11 12:54:04;;;;;;;2.42;1.27;;;18.00;59.50;;;;;;5052534;28;20210;-58
2022/04/11 12:56:38;;;;;;;4.38;1.88;;;18.30;58.50;;;;;;5052216;28;20227;-60
2022/04/11 12:59:06;;;;;;;3.70;1.83;;;18.40;58.60;;;;;;5052363;28;20220;-57
2022/04/11 13:01:52;;;;;;;2.65;1.60;;;18.50;58.80;;;;;;5052016;28;20232;-58